MSP weather

Minneapolis-St Paul International/Wold-Chamberlain Airport
Minneapolis, Minnesota, United States

Public forecast

Using degrees Fahrenheit for public forecast. Weather courtesy of forecast.io.

METAR (pilot weather report)

Retrieved 2018/02/18 22:53 UTC (45 minutes ago):

KMSP 182253Z 19009KT 10SM FEW180 SCT220 OVC300 07/M01 A2962 RMK AO2 SLP038 T00671011

TAF (pilot weather forecast)

Retrieved 2018/02/18 18:54 UTC (5 hours ago):

TAF KMSP 181753Z 1818/1924 15016G24KT P6SM OVC100 WS020/19055KT FM190000 15009KT P6SM BKN100 FM190200 30008KT P6SM OVC050 FM190600 34010KT P6SM OVC015 PROB30 1906/1910 6SM -SN OVC010 FM191000 36016KT P6SM OVC015 PROB30 1910/1914 6SM -SN BR FM191400 03018G23KT 2SM -SN BR OVC010